Wofford Heights, CA

7:50 AM PDT on October 24, 2014 (GMT -0700)
Tehachapi Municipal | Change Station
CLOSE
Current Station
Airport
Location: Tehachapi,
Elevation: 3999 ft
Nearby Weather Stations

Elev 3999 ft 35.13 °N, 118.44 °W | Updated 15 minutes ago

Clear
Clear
39 °F
Feels Like 39 °F
N
0
Wind Variable Wind from North

Today
High -- | Low -- °F
--% Chance of Precip.
Yesterday
High -- | Low -- °F
Precip. -- in
7:08 AM 6:07 PM
New Moon, 1% visible
Pressure 30.13 in
Visibility 10.0 miles
Clouds Clear
Dew Point 25 °F
Humidity 56%
Rainfall 0.00 in
Snow Depth Not available.
UV 0 out of 12
Pollen 4.10 out of 12
Ozone Good
PM2.5 Moderate
Flu Activity Sporadic
METAR KTSP 241435Z AUTO 00000KT 10SM CLR 04/M04 A3013 RMK AO2

More Conditions Fewer Conditions

Pressure 30.13 in
Visibility 10.0 miles
Clouds Clear
Dew Point 25 °F
Humidity 56%
Rainfall 0.00 in
Snow Depth Not available.
UV 0 out of 12
Pollen 4.10 out of 12
Ozone Good
PM2.5 Moderate
Flu Activity Sporadic
METAR KTSP 241435Z AUTO 00000KT 10SM CLR 04/M04 A3013 RMK AO2

More Conditions Fewer Conditions

10-Day Weather Forecast

Almanac

Astronomy

Oct. 24, 2014 Rise Set
Actual Time 7:08 AM PDT 6:07 PM PDT
Civil Twilight 6:42 AM PDT 6:33 PM PDT
Nautical Twilight 6:12 AM PDT 7:02 PM PDT
Astronomical Twilight 5:42 AM PDT 7:32 PM PDT
Moon 7:51 AM PDT 6:52 PM PDT
Length of Visible Light 11h 50m
Length of Day
10h 58m
Tomorrow will be 2m 5s shorter.
New Moon, 1% of the Moon is Illuminated
Today
New Moon
Oct 30
First Quarter
Nov 6
Full
Nov 14
Last Quarter
Nov 22
New

Today's Extremes

State Highs State Lows

Community

WunderPhotos

Upload Photos

1,764,581 photos uploaded!

Nearby

Air Quality

  Air Quality AQ Index Pollutant
Yesterday Moderate
OZONE
Yesterday Moderate
PM2.5
Current Moderate
PM2.5
Current Good
OZONE
Friday Moderate
OZONE
Saturday Moderate
OZONE
Sunday Moderate
OZONE
Monday Moderate
OZONE
Tuesday Moderate
OZONE

Snow Depth

Station Depth Elevation
Virginia Lakes Ridge 0 in 9200 ft
Leavitt Lake 1 in 9400 ft
Leavitt Meadows 1 in 7200 ft
Sonora Pass 0 in 8800 ft
Summit Meadow 1 in 9122 ft

Earthquake Activity

City Distance Mag. Time & Date
Brea, California 127 miles 2.9 3:35 PM PDT
2014-10-23
Brea, California 127 miles 2.8 3:34 PM PDT
2014-10-23
Corona, California 135 miles 2.5 1:09 PM PDT
2014-10-23
Solvang, California 131 miles 2.6 5:35 PM PDT
2014-10-22
Minimum magnitude displayed is 2.5.

Coastal Water Temperatures

Place Temperature
No Stations Reporting

Nearby Weather Stations